Time;durP1;ratioP1;P1;durP2;ratioP2;P2;SDS_P1;SDS_P2;PMS_P1;PMS_P2;Temp;Humidity;BMP_temperature;BMP_pressure;BME280_temperature;BME280_humidity;BME280_pressure;Samples;Min_cycle;Max_cycle;Signal;HPM_P1;HPM_P2
2021/11/21 04:29:06;;;;;;;8.27;5.97;;;9.50;98.30;;;;;;5095970;23;20481;-83
2021/11/21 04:31:09;;;;;;;12.47;6.53;;;9.60;98.30;;;;;;5135279;23;20423;-83
2021/11/21 04:33:13;;;;;;;11.77;7.03;;;9.60;98.30;;;;;;5135186;23;20436;-83
2021/11/21 04:35:18;;;;;;;9.70;6.90;;;9.60;98.30;;;;;;5135751;23;20422;-83
2021/11/21 04:37:21;;;;;;;9.30;6.10;;;9.60;98.30;;;;;;5136152;23;20446;-83
2021/11/21 04:39:24;;;;;;;9.90;7.07;;;9.60;98.30;;;;;;5135144;23;20501;-83
2021/11/21 04:41:28;;;;;;;13.80;6.50;;;9.60;98.30;;;;;;5135020;23;20436;-83
2021/11/21 04:43:31;;;;;;;8.63;5.83;;;9.50;98.30;;;;;;5126289;23;20758;-83
2021/11/21 04:45:36;;;;;;;8.07;5.67;;;9.50;98.30;;;;;;5126927;23;20432;-83
2021/11/21 04:47:39;;;;;;;12.63;5.60;;;9.50;98.30;;;;;;5127140;23;21011;-82
2021/11/21 04:49:42;;;;;;;7.93;5.30;;;9.50;98.30;;;;;;5133536;23;20505;-83
2021/11/21 04:51:45;;;;;;;13.73;5.57;;;9.40;98.30;;;;;;5134222;23;20521;-83
2021/11/21 04:53:48;;;;;;;6.93;4.50;;;9.50;98.30;;;;;;5126236;23;20491;-84
2021/11/21 04:55:51;;;;;;;7.07;4.73;;;9.40;98.30;;;;;;5135898;23;20531;-83
2021/11/21 04:57:55;;;;;;;8.00;5.03;;;9.40;98.30;;;;;;5127265;23;20490;-83
2021/11/21 04:59:58;;;;;;;9.77;4.30;;;9.40;98.30;;;;;;5128386;23;20428;-84
2021/11/21 05:02:02;;;;;;;9.97;5.13;;;9.40;98.30;;;;;;5136321;23;20434;-83
2021/11/21 05:04:06;;;;;;;7.50;5.07;;;9.40;98.30;;;;;;5127891;23;20433;-83
2021/11/21 05:06:09;;;;;;;8.67;5.30;;;9.40;98.30;;;;;;5128597;23;20477;-83
2021/11/21 05:08:12;;;;;;;6.67;4.10;;;9.30;98.30;;;;;;5135998;23;20427;-83
2021/11/21 05:10:15;;;;;;;8.40;4.83;;;9.40;98.30;;;;;;5127461;23;20522;-82
2021/11/21 05:12:18;;;;;;;5.60;4.10;;;9.40;98.30;;;;;;5127957;23;20454;-81
2021/11/21 05:14:22;;;;;;;9.00;4.40;;;9.30;98.30;;;;;;5127656;23;20457;-82
2021/11/21 05:16:24;;;;;;;6.00;4.23;;;9.30;98.30;;;;;;5135019;23;20460;-82
2021/11/21 05:18:31;;;;;;;6.33;4.13;;;9.30;98.30;;;;;;5133789;23;20418;-82
2021/11/21 05:20:34;;;;;;;12.87;3.77;;;9.30;98.30;;;;;;5134058;23;21336;-82
2021/11/21 05:22:36;;;;;;;6.80;4.10;;;9.30;98.30;;;;;;5134069;23;20422;-81
2021/11/21 05:24:39;;;;;;;8.30;4.00;;;9.30;98.30;;;;;;5133881;23;20415;-82
2021/11/21 05:26:42;;;;;;;8.40;4.23;;;9.30;98.30;;;;;;5132602;23;20453;-82
2021/11/21 05:28:45;;;;;;;8.87;3.57;;;9.20;98.30;;;;;;5132847;23;20513;-82
2021/11/21 05:30:50;;;;;;;5.00;3.37;;;9.20;98.30;;;;;;5125124;23;20430;-82
2021/11/21 05:32:54;;;;;;;8.53;3.83;;;9.20;98.30;;;;;;5132941;23;20433;-83
2021/11/21 05:34:58;;;;;;;6.40;3.53;;;9.10;98.30;;;;;;5126497;23;20474;-82
2021/11/21 05:37:01;;;;;;;4.63;3.37;;;9.10;98.30;;;;;;5131354;23;20496;-83
2021/11/21 05:39:04;;;;;;;10.50;3.90;;;9.20;98.30;;;;;;5120524;23;20436;-82
2021/11/21 05:41:07;;;;;;;10.23;3.90;;;9.20;98.30;;;;;;5119494;23;20428;-83
2021/11/21 05:43:10;;;;;;;4.50;3.17;;;9.10;98.30;;;;;;5120876;23;20435;-83
2021/11/21 05:45:18;;;;;;;6.00;3.77;;;9.20;98.30;;;;;;5119878;23;20413;-83
2021/11/21 05:47:21;;;;;;;10.00;3.60;;;9.10;98.30;;;;;;5120526;23;20481;-83
2021/11/21 05:49:24;;;;;;;6.00;3.17;;;9.10;98.30;;;;;;5124244;23;20434;-83
2021/11/21 05:51:28;;;;;;;7.50;3.47;;;9.10;98.30;;;;;;5123968;23;20434;-82
2021/11/21 05:53:31;;;;;;;5.70;3.47;;;9.10;98.30;;;;;;5125926;23;20560;-82
2021/11/21 05:55:34;;;;;;;9.27;4.00;;;9.20;98.30;;;;;;5124586;23;20456;-83
2021/11/21 05:57:37;;;;;;;7.70;4.23;;;9.10;98.30;;;;;;5126047;23;20426;-83
2021/11/21 05:59:40;;;;;;;7.60;4.17;;;9.10;98.30;;;;;;5132152;23;20422;-82
2021/11/21 06:01:43;;;;;;;8.50;3.90;;;9.10;98.30;;;;;;5133042;23;20511;-83
2021/11/21 06:03:46;;;;;;;6.20;4.23;;;9.10;98.30;;;;;;5133868;23;20425;-82
2021/11/21 06:05:49;;;;;;;8.23;4.67;;;9.10;98.30;;;;;;5134714;23;20774;-83
2021/11/21 06:07:53;;;;;;;8.93;3.90;;;9.10;98.30;;;;;;5124167;23;20446;-82
2021/11/21 06:09:56;;;;;;;7.83;4.17;;;9.10;98.30;;;;;;5125941;23;20434;-82
2021/11/21 06:11:59;;;;;;;8.53;5.00;;;9.10;98.30;;;;;;5134209;23;20485;-83
2021/11/21 06:14:03;;;;;;;7.07;4.60;;;9.20;98.30;;;;;;5125872;23;20491;-83
2021/11/21 06:16:07;;;;;;;11.20;5.63;;;9.20;98.30;;;;;;5126345;23;20458;-83
2021/11/21 06:18:10;;;;;;;7.50;4.57;;;9.20;98.30;;;;;;5124596;23;20481;-82
2021/11/21 06:20:14;;;;;;;11.10;5.10;;;9.20;98.30;;;;;;5134055;23;20512;-82
2021/11/21 06:22:17;;;;;;;9.60;6.20;;;9.20;98.30;;;;;;5134296;23;20464;-83
2021/11/21 06:24:22;;;;;;;10.07;5.33;;;9.10;98.30;;;;;;5124712;23;20524;-82
2021/11/21 06:26:25;;;;;;;11.20;4.87;;;9.10;98.30;;;;;;5124765;23;20484;-82
2021/11/21 06:28:28;;;;;;;8.20;4.60;;;9.10;98.30;;;;;;5126828;23;20520;-82
2021/11/21 06:30:31;;;;;;;12.67;5.10;;;9.10;98.30;;;;;;5127363;23;20426;-82
2021/11/21 06:32:35;;;;;;;9.83;5.30;;;9.10;98.30;;;;;;5127598;23;20429;-83
2021/11/21 06:34:38;;;;;;;11.83;6.70;;;9.20;98.30;;;;;;5126787;23;20435;-82
2021/11/21 06:36:40;;;;;;;9.77;4.40;;;9.10;98.30;;;;;;5135359;23;20457;-83
2021/11/21 06:38:44;;;;;;;8.63;4.27;;;9.10;98.30;;;;;;5135736;23;21115;-82
2021/11/21 06:40:48;;;;;;;17.00;4.97;;;9.10;98.30;;;;;;5128728;23;20435;-83
2021/11/21 06:42:51;;;;;;;13.27;5.40;;;9.10;98.30;;;;;;5128248;23;20460;-82
2021/11/21 06:44:54;;;;;;;11.07;5.17;;;9.10;98.30;;;;;;5129582;23;20436;-82
2021/11/21 06:46:57;;;;;;;8.43;4.20;;;9.10;98.30;;;;;;5129317;23;20763;-83
2021/11/21 06:49:01;;;;;;;11.77;4.67;;;9.10;98.30;;;;;;5137270;23;20426;-82
2021/11/21 06:51:04;;;;;;;10.77;4.50;;;9.10;98.30;;;;;;5129743;23;20428;-83
2021/11/21 06:53:07;;;;;;;11.77;4.60;;;9.10;98.30;;;;;;5128704;23;20431;-83
2021/11/21 06:55:13;;;;;;;7.17;4.17;;;9.10;98.30;;;;;;5127726;23;20537;-82
2021/11/21 06:57:19;;;;;;;10.30;4.70;;;9.00;98.30;;;;;;5124775;23;20839;-83
2021/11/21 06:59:22;;;;;;;7.10;4.20;;;9.10;98.30;;;;;;5134421;23;20455;-83
2021/11/21 07:01:25;;;;;;;10.90;4.20;;;9.00;98.30;;;;;;5136193;23;20653;-83
2021/11/21 07:03:28;;;;;;;8.97;4.10;;;9.00;98.30;;;;;;5128024;23;20440;-83
2021/11/21 07:05:31;;;;;;;10.30;3.80;;;9.00;98.30;;;;;;5129133;23;20433;-82
2021/11/21 07:07:34;;;;;;;7.50;3.63;;;9.00;98.30;;;;;;5128381;23;20426;-82
2021/11/21 07:09:38;;;;;;;7.87;3.60;;;9.00;98.30;;;;;;5126519;23;20517;-82
2021/11/21 07:11:42;;;;;;;11.83;4.10;;;9.00;98.30;;;;;;5127260;23;20529;-82
2021/11/21 07:13:47;;;;;;;12.40;4.03;;;9.00;98.30;;;;;;5136519;23;20849;-82
2021/11/21 07:15:51;;;;;;;8.70;4.00;;;9.00;98.30;;;;;;5128044;23;20525;-83
2021/11/21 07:17:54;;;;;;;18.07;8.23;;;9.00;98.30;;;;;;5127953;23;20432;-83
2021/11/21 07:19:57;;;;;;;10.20;5.30;;;9.00;98.30;;;;;;5135049;23;20420;-83
2021/11/21 07:22:00;;;;;;;8.80;3.90;;;9.00;98.30;;;;;;5127309;23;20426;-83
2021/11/21 07:24:04;;;;;;;8.40;4.27;;;9.00;98.30;;;;;;5135906;23;20417;-83
2021/11/21 07:26:10;;;;;;;9.40;3.53;;;9.00;98.30;;;;;;5128386;23;20474;-82
2021/11/21 07:28:13;;;;;;;14.10;3.93;;;8.90;98.30;;;;;;5137897;23;20419;-83
2021/11/21 07:30:19;;;;;;;9.47;3.93;;;8.90;98.30;;;;;;5129106;23;20434;-82
2021/11/21 07:32:22;;;;;;;14.83;3.77;;;8.90;98.30;;;;;;5130078;23;20526;-82
2021/11/21 07:34:25;;;;;;;13.73;4.97;;;8.90;98.30;;;;;;5128289;23;20495;-83
2021/11/21 07:36:28;;;;;;;12.03;4.30;;;8.90;98.30;;;;;;5128898;23;20965;-83
2021/11/21 07:38:31;;;;;;;17.70;8.73;;;8.90;98.30;;;;;;5129649;23;20570;-82
2021/11/21 07:40:34;;;;;;;13.23;3.83;;;8.90;98.30;;;;;;5129142;23;20458;-82
2021/11/21 07:42:37;;;;;;;8.20;4.50;;;8.90;98.30;;;;;;5137832;23;20806;-82
2021/11/21 07:44:40;;;;;;;8.73;4.13;;;8.90;98.30;;;;;;5137091;23;20454;-83
2021/11/21 07:46:45;;;;;;;12.40;3.87;;;8.90;98.30;;;;;;5128323;23;20456;-83
2021/11/21 07:48:48;;;;;;;6.77;4.20;;;8.90;98.30;;;;;;5127954;23;20433;-83
2021/11/21 07:50:51;;;;;;;9.80;4.90;;;8.80;98.30;;;;;;5135313;23;20435;-83
2021/11/21 07:52:54;;;;;;;7.47;4.77;;;8.80;98.30;;;;;;5136553;23;20460;-83
2021/11/21 07:54:57;;;;;;;14.60;5.37;;;8.80;98.30;;;;;;5128720;23;20435;-82
2021/11/21 07:57:01;;;;;;;17.97;7.93;;;8.80;98.30;;;;;;5128422;23;20484;-83
2021/11/21 07:59:04;;;;;;;13.57;4.47;;;8.80;98.30;;;;;;5127044;23;20467;-82
2021/11/21 08:01:07;;;;;;;12.33;4.67;;;8.80;98.30;;;;;;5135083;23;20446;-82
2021/11/21 08:03:11;;;;;;;11.67;4.33;;;8.80;98.30;;;;;;5126063;23;20432;-81
2021/11/21 08:05:15;;;;;;;12.50;5.80;;;8.80;98.30;;;;;;5136310;23;20503;-82
2021/11/21 08:07:18;;;;;;;6.90;4.13;;;8.80;98.30;;;;;;5134760;23;20507;-82
2021/11/21 08:09:23;;;;;;;7.30;4.33;;;8.80;98.30;;;;;;5135808;23;20491;-82
2021/11/21 08:11:26;;;;;;;6.70;4.70;;;8.80;98.30;;;;;;5128692;23;21183;-82
2021/11/21 08:13:29;;;;;;;12.20;4.47;;;8.80;98.30;;;;;;5128673;23;20736;-81
2021/11/21 08:15:33;;;;;;;13.07;5.10;;;8.80;98.30;;;;;;5129170;23;20944;-83
2021/11/21 08:17:36;;;;;;;14.97;4.93;;;8.90;98.30;;;;;;5136024;23;20508;-82
2021/11/21 08:19:44;;;;;;;8.70;5.27;;;8.90;98.30;;;;;;5136214;23;20421;-83
2021/11/21 08:21:49;;;;;;;12.83;5.60;;;8.90;98.30;;;;;;5136861;23;20429;-82
2021/11/21 08:23:53;;;;;;;10.87;4.57;;;9.00;98.30;;;;;;5137767;23;20424;-81
2021/11/21 08:25:56;;;;;;;9.43;4.47;;;9.00;98.30;;;;;;5128867;23;20449;-82
2021/11/21 08:27:59;;;;;;;10.93;5.77;;;9.00;98.30;;;;;;5129592;23;20430;-83
2021/11/21 08:30:04;;;;;;;8.93;4.57;;;9.10;98.30;;;;;;5130506;23;20429;-81
2021/11/21 08:32:08;;;;;;;8.90;4.17;;;9.10;98.30;;;;;;5138210;23;20429;-83
2021/11/21 08:34:11;;;;;;;9.60;4.33;;;9.10;98.30;;;;;;5129907;23;20427;-82
2021/11/21 08:36:15;;;;;;;7.30;3.80;;;9.10;98.30;;;;;;5135080;23;20512;-82
2021/11/21 08:38:18;;;;;;;17.07;9.40;;;9.10;98.30;;;;;;5126121;23;20435;-81
2021/11/21 08:40:21;;;;;;;14.70;5.50;;;9.20;98.30;;;;;;5134585;23;20461;-81
2021/11/21 08:42:24;;;;;;;12.43;5.00;;;9.20;98.30;;;;;;5125056;23;20434;-81
2021/11/21 08:44:27;;;;;;;8.77;4.93;;;9.30;98.30;;;;;;5125923;23;20445;-80
2021/11/21 08:46:30;;;;;;;14.30;7.50;;;9.30;98.30;;;;;;5126195;23;20445;-82
2021/11/21 08:48:33;;;;;;;13.53;5.80;;;9.30;98.30;;;;;;5126725;23;20430;-81
2021/11/21 08:50:36;;;;;;;10.90;4.70;;;9.40;98.30;;;;;;5134507;23;20756;-81
2021/11/21 08:52:40;;;;;;;9.53;4.70;;;9.50;98.30;;;;;;5134778;23;20484;-83
2021/11/21 08:54:43;;;;;;;5.80;4.40;;;9.80;98.30;;;;;;5136162;23;20418;-82
2021/11/21 08:56:48;;;;;;;10.83;5.13;;;9.90;98.30;;;;;;5133424;23;20847;-82
2021/11/21 08:58:50;;;;;;;13.23;5.47;;;10.00;98.30;;;;;;5134862;23;20509;-81
2021/11/21 09:00:53;;;;;;;11.70;4.50;;;10.00;98.30;;;;;;5126553;23;20455;-81
2021/11/21 09:02:57;;;;;;;6.57;4.17;;;9.90;98.30;;;;;;5127394;23;20441;-83
2021/11/21 09:05:03;;;;;;;13.63;4.93;;;9.80;98.30;;;;;;5135453;23;20952;-82
2021/11/21 09:07:06;;;;;;;10.87;4.03;;;9.80;98.30;;;;;;5126707;23;20458;-82
2021/11/21 09:09:11;;;;;;;6.77;4.57;;;9.70;98.30;;;;;;5134314;23;20971;-82
2021/11/21 09:11:14;;;;;;;10.23;5.57;;;9.70;98.30;;;;;;5127318;23;20434;-82
2021/11/21 09:13:17;;;;;;;9.50;4.67;;;9.80;98.30;;;;;;5127076;23;20820;-83
2021/11/21 09:15:22;;;;;;;8.93;3.33;;;9.90;98.30;;;;;;5127572;23;20431;-83
2021/11/21 09:17:24;;;;;;;7.13;3.57;;;10.00;98.30;;;;;;5136882;23;20514;-82
2021/11/21 09:19:27;;;;;;;11.30;3.87;;;10.20;98.30;;;;;;5138770;23;20453;-82
2021/11/21 09:21:30;;;;;;;5.30;2.90;;;10.30;98.30;;;;;;5125921;23;20439;-85
2021/11/21 09:23:34;;;;;;;13.70;4.17;;;10.50;98.30;;;;;;5117540;23;20436;-84
2021/11/21 09:25:38;;;;;;;8.00;3.63;;;10.40;98.30;;;;;;5118936;23;20435;-85
2021/11/21 09:27:41;;;;;;;10.53;3.10;;;10.40;98.30;;;;;;5119305;23;20809;-85
2021/11/21 09:29:45;;;;;;;8.93;3.07;;;10.40;98.30;;;;;;5125757;23;20436;-85
2021/11/21 09:31:48;;;;;;;7.30;3.97;;;10.30;98.30;;;;;;5130544;23;20441;-84
2021/11/21 09:33:51;;;;;;;8.63;3.17;;;10.20;98.30;;;;;;5122485;23;20910;-84
2021/11/21 09:35:54;;;;;;;7.10;3.00;;;10.10;98.30;;;;;;5126849;23;20937;-85
2021/11/21 09:37:59;;;;;;;5.90;2.30;;;10.00;98.30;;;;;;5126735;23;20442;-85
2021/11/21 09:40:03;;;;;;;11.67;2.90;;;9.90;98.30;;;;;;5126584;23;20489;-84
2021/11/21 09:42:08;;;;;;;13.97;4.40;;;9.90;98.30;;;;;;5127127;23;20840;-84
2021/11/21 09:44:11;;;;;;;9.00;2.80;;;9.90;98.30;;;;;;5128413;23;20438;-84
2021/11/21 09:46:16;;;;;;;4.07;2.50;;;10.00;98.30;;;;;;5127805;23;20445;-85
2021/11/21 09:48:19;;;;;;;7.67;3.00;;;10.30;98.30;;;;;;5127901;23;20421;-84
2021/11/21 09:50:23;;;;;;;6.77;2.70;;;10.50;98.30;;;;;;5119521;23;20532;-85
2021/11/21 09:52:26;;;;;;;4.80;2.97;;;10.80;98.30;;;;;;5127315;23;20457;-85
2021/11/21 09:54:30;;;;;;;11.60;3.03;;;11.00;98.30;;;;;;5127190;23;20430;-85
2021/11/21 09:56:33;;;;;;;6.40;3.33;;;11.10;98.30;;;;;;5127135;23;20452;-85
2021/11/21 09:58:38;;;;;;;7.40;3.33;;;11.20;98.30;;;;;;5126291;23;21000;-85
2021/11/21 10:00:41;;;;;;;6.60;3.00;;;11.30;98.30;;;;;;5126037;23;20426;-85
2021/11/21 10:02:47;;;;;;;5.90;3.17;;;11.60;98.30;;;;;;5127310;23;20430;-84
2021/11/21 10:04:55;;;;;;;6.80;2.97;;;11.60;98.30;;;;;;5127206;23;20422;-84
2021/11/21 10:06:58;;;;;;;7.03;3.57;;;11.70;98.30;;;;;;5127767;23;20967;-85
2021/11/21 10:09:02;;;;;;;6.13;3.47;;;11.80;98.30;;;;;;5118613;23;20573;-85
2021/11/21 10:11:08;;;;;;;10.10;3.27;;;11.80;98.30;;;;;;5118803;23;20455;-84
2021/11/21 10:13:30;;;;;;;20.87;4.30;;;11.80;98.30;;;;;;5127690;23;20540;-84
2021/11/21 10:15:34;;;;;;;5.00;2.53;;;12.00;98.30;;;;;;5128000;23;20669;-84
2021/11/21 10:17:46;;;;;;;5.90;2.77;;;12.20;98.30;;;;;;5126992;23;20449;-85
2021/11/21 10:20:20;;;;;;;12.17;2.70;;;12.30;98.30;;;;;;5126994;23;20498;-85
2021/11/21 10:25:16;;;;;;;11.80;3.87;;;12.00;98.30;;;;;;5118637;23;20479;-85
2021/11/21 10:27:23;;;;;;;8.43;3.27;;;11.50;98.30;;;;;;5118225;23;20439;-84
2021/11/21 10:29:36;;;;;;;11.30;3.90;;;11.00;98.30;;;;;;5099212;23;21066;-80
2021/11/21 10:31:40;;;;;;;6.77;3.33;;;11.00;98.30;;;;;;5102311;23;20440;-79
2021/11/21 10:33:46;;;;;;;5.57;2.63;;;10.90;98.30;;;;;;5102899;23;20434;-79
2021/11/21 10:35:55;;;;;;;8.10;3.20;;;10.90;98.30;;;;;;5104566;23;20415;-80
2021/11/21 10:38:16;;;;;;;9.47;2.70;;;10.90;98.30;;;;;;5104747;23;20454;-80
2021/11/21 10:40:20;;;;;;;10.80;2.87;;;10.90;98.30;;;;;;5070676;23;20449;-80
2021/11/21 10:42:24;;;;;;;11.83;2.77;;;10.90;98.30;;;;;;5081000;23;20766;-80
2021/11/21 10:44:27;;;;;;;10.20;4.53;;;10.80;98.30;;;;;;5080815;23;20431;-80
2021/11/21 10:46:34;;;;;;;11.23;3.60;;;10.80;98.30;;;;;;5072286;23;20901;-80
2021/11/21 10:48:38;;;;;;;6.80;3.27;;;10.90;98.30;;;;;;5080103;23;20444;-80
2021/11/21 10:50:41;;;;;;;10.57;3.40;;;10.70;98.30;;;;;;5078828;23;20450;-80
2021/11/21 10:52:48;;;;;;;10.70;3.50;;;10.60;98.30;;;;;;5075235;23;20426;-80
2021/11/21 10:54:53;;;;;;;9.60;3.10;;;10.50;98.30;;;;;;5074950;23;20778;-79
2021/11/21 10:56:59;;;;;;;7.00;2.87;;;10.50;98.30;;;;;;5075236;23;20426;-79
2021/11/21 10:59:03;;;;;;;11.43;3.20;;;10.80;98.30;;;;;;5072887;23;20464;-81
2021/11/21 11:01:06;;;;;;;8.43;3.80;;;11.30;98.30;;;;;;5073968;23;20434;-80
2021/11/21 11:03:17;;;;;;;6.90;2.93;;;12.10;98.30;;;;;;5079711;23;20434;-81
2021/11/21 11:05:23;;;;;;;8.40;4.47;;;12.80;98.30;;;;;;5082008;23;20728;-80
2021/11/21 11:07:27;;;;;;;6.87;2.93;;;13.20;98.30;;;;;;5077212;23;20455;-80
2021/11/21 11:09:31;;;;;;;9.43;3.20;;;13.60;98.30;;;;;;5084008;23;20523;-81
2021/11/21 11:11:36;;;;;;;9.67;2.73;;;13.50;98.30;;;;;;5085215;23;20442;-81
2021/11/21 11:13:39;;;;;;;12.17;3.43;;;13.40;98.30;;;;;;5085156;23;20488;-80
2021/11/21 11:15:45;;;;;;;7.00;2.70;;;13.70;98.30;;;;;;5084345;23;20773;-81
2021/11/21 11:17:49;;;;;;;13.50;3.20;;;14.30;98.30;;;;;;5084072;23;20447;-81
2021/11/21 11:19:58;;;;;;;6.23;2.80;;;14.70;98.30;;;;;;5083330;23;20448;-81
2021/11/21 11:22:04;;;;;;;5.00;3.10;;;15.00;98.30;;;;;;5083950;23;20436;-80
2021/11/21 11:24:08;;;;;;;8.80;3.20;;;15.10;98.30;;;;;;5085762;23;20903;-81
2021/11/21 11:26:13;;;;;;;3.93;3.07;;;15.10;98.30;;;;;;5082419;23;20431;-80
2021/11/21 11:28:21;;;;;;;7.33;3.10;;;15.00;98.30;;;;;;5081810;23;20507;-81
2021/11/21 11:30:29;;;;;;;6.77;3.30;;;15.60;98.30;;;;;;5081755;23;20762;-81
2021/11/21 11:32:36;;;;;;;7.27;3.07;;;16.20;98.30;;;;;;5081170;23;20438;-81
2021/11/21 11:34:39;;;;;;;5.70;3.87;;;16.50;98.30;;;;;;5080370;23;20976;-81
2021/11/21 11:36:54;;;;;;;8.53;3.40;;;16.70;98.30;;;;;;5072329;23;20447;-81
2021/11/21 11:39:05;;;;;;;5.30;3.07;;;16.70;98.30;;;;;;5077766;23;20534;-81
2021/11/21 11:41:29;;;;;;;6.20;4.00;;;16.90;98.30;;;;;;5071480;23;20424;-80
2021/11/21 11:43:40;;;;;;;4.33;2.43;;;17.70;98.30;;;;;;5080958;23;20491;-80
2021/11/21 11:45:46;;;;;;;7.07;2.90;;;17.80;95.90;;;;;;5081425;23;20929;-80
2021/11/21 11:47:49;;;;;;;6.93;3.40;;;17.10;96.60;;;;;;5071781;23;20457;-80
2021/11/21 11:49:52;;;;;;;7.17;3.63;;;16.60;98.10;;;;;;5066527;23;20781;-80
2021/11/21 11:51:55;;;;;;;6.37;2.83;;;16.60;98.30;;;;;;5069270;23;20439;-81
2021/11/21 11:54:02;;;;;;;11.17;3.27;;;16.70;98.30;;;;;;5075637;23;20432;-80
2021/11/21 11:56:12;;;;;;;7.00;3.47;;;16.50;98.30;;;;;;5093845;23;20438;-80
2021/11/21 11:58:54;;;;;;;5.13;2.97;;;16.80;98.30;;;;;;5091753;23;20439;-79
2021/11/21 12:00:57;;;;;;;8.67;4.10;;;16.70;98.30;;;;;;5078054;23;20430;-81
2021/11/21 12:03:01;;;;;;;7.87;3.07;;;16.00;98.30;;;;;;5081170;23;20424;-80
2021/11/21 12:05:05;;;;;;;9.43;3.60;;;15.30;98.30;;;;;;5082583;23;20431;-80
2021/11/21 12:07:21;;;;;;;8.70;3.60;;;14.90;98.30;;;;;;5090607;23;20410;-79
2021/11/21 12:09:27;;;;;;;6.77;2.60;;;14.40;98.30;;;;;;5089403;23;20451;-79
2021/11/21 12:11:51;;;;;;;11.23;4.23;;;13.80;98.30;;;;;;5085096;23;20483;-80
2021/11/21 12:13:54;;;;;;;8.27;2.90;;;13.40;98.30;;;;;;5080382;23;20985;-80
2021/11/21 12:16:00;;;;;;;11.23;2.83;;;13.30;98.30;;;;;;5074943;23;20443;-80
2021/11/21 12:18:05;;;;;;;10.13;3.00;;;13.20;98.30;;;;;;5084162;23;20416;-79
2021/11/21 12:20:09;;;;;;;10.80;4.63;;;12.90;98.30;;;;;;5075408;23;20441;-79
2021/11/21 12:22:38;;;;;;;5.80;2.60;;;12.70;98.30;;;;;;5075290;23;20487;-79
2021/11/21 12:24:46;;;;;;;7.97;2.80;;;13.60;98.30;;;;;;5082998;23;20431;-79
2021/11/21 12:26:50;;;;;;;8.27;4.17;;;15.30;98.30;;;;;;5082637;23;20451;-79
2021/11/21 12:29:31;;;;;;;6.73;3.80;;;16.20;98.30;;;;;;5083460;23;20444;-80
2021/11/21 12:31:37;;;;;;;8.80;3.47;;;17.70;98.30;;;;;;5083104;23;20420;-80
2021/11/21 12:33:40;;;;;;;8.00;3.50;;;18.40;96.10;;;;;;5076509;23;20436;-79
2021/11/21 12:35:51;;;;;;;8.37;3.37;;;18.70;93.30;;;;;;5076105;23;20536;-79
2021/11/21 12:37:55;;;;;;;7.50;4.33;;;17.70;93.90;;;;;;5075658;23;20436;-80
2021/11/21 12:40:16;;;;;;;8.50;3.40;;;16.60;97.50;;;;;;5073126;23;20463;-79
2021/11/21 12:42:25;;;;;;;8.77;3.00;;;15.80;98.30;;;;;;5081770;23;20435;-79
2021/11/21 12:44:28;;;;;;;6.93;3.10;;;15.60;98.30;;;;;;5072379;23;20427;-79
2021/11/21 12:46:31;;;;;;;6.17;3.03;;;15.40;98.30;;;;;;5072345;23;20434;-79
2021/11/21 12:48:34;;;;;;;9.60;3.00;;;14.90;98.30;;;;;;5080424;23;20444;-79
2021/11/21 12:50:39;;;;;;;7.80;3.43;;;14.50;98.30;;;;;;5081821;23;20432;-80
2021/11/21 12:52:57;;;;;;;6.43;2.73;;;14.40;98.30;;;;;;5081905;23;20441;-79
2021/11/21 12:55:01;;;;;;;10.30;3.03;;;14.60;98.30;;;;;;5081312;23;20408;-80
2021/11/21 12:57:07;;;;;;;8.57;3.67;;;14.70;98.30;;;;;;5082748;23;20507;-79
2021/11/21 12:59:10;;;;;;;8.30;2.90;;;14.80;98.30;;;;;;5073121;23;20458;-80
2021/11/21 13:01:16;;;;;;;4.53;2.07;;;15.00;98.30;;;;;;5080900;23;20435;-79
2021/11/21 13:03:20;;;;;;;6.63;2.50;;;15.10;98.30;;;;;;5075682;23;20436;-80
2021/11/21 13:05:24;;;;;;;5.47;2.93;;;15.00;98.30;;;;;;5076083;23;20986;-80
2021/11/21 13:07:33;;;;;;;6.20;2.80;;;14.80;98.30;;;;;;5082650;23;20424;-80
2021/11/21 13:09:36;;;;;;;5.37;2.80;;;14.60;98.30;;;;;;5080895;23;20444;-79
2021/11/21 13:11:40;;;;;;;7.50;3.20;;;14.80;98.30;;;;;;5082784;23;21239;-80
2021/11/21 13:13:45;;;;;;;12.43;3.00;;;15.60;98.30;;;;;;5070314;23;20432;-81
2021/11/21 13:15:49;;;;;;;5.70;2.50;;;16.40;98.30;;;;;;5073101;23;20531;-80
2021/11/21 13:18:10;;;;;;;6.80;3.07;;;16.70;98.30;;;;;;5083095;23;20648;-80
2021/11/21 13:20:18;;;;;;;4.77;2.90;;;16.80;98.30;;;;;;5075631;23;20524;-80
2021/11/21 13:22:21;;;;;;;3.77;2.50;;;16.20;98.30;;;;;;5074917;23;20428;-80
2021/11/21 13:24:24;;;;;;;4.70;2.90;;;16.00;98.30;;;;;;5067234;23;20442;-80
2021/11/21 13:26:29;;;;;;;5.43;2.63;;;16.00;98.30;;;;;;5075268;23;20981;-80
2021/11/21 13:28:52;;;;;;;5.07;2.50;;;15.90;98.30;;;;;;5074992;23;20451;-80
2021/11/21 13:30:56;;;;;;;3.63;2.50;;;16.80;98.30;;;;;;5067317;23;20431;-82
2021/11/21 13:33:13;;;;;;;6.80;3.40;;;17.50;96.20;;;;;;5076185;23;20936;-82
2021/11/21 13:35:18;;;;;;;5.80;2.70;;;18.00;95.10;;;;;;5077399;23;20836;-82
2021/11/21 13:37:23;;;;;;;3.70;2.77;;;18.40;93.30;;;;;;5077475;23;20431;-82
2021/11/21 13:39:31;;;;;;;7.03;3.87;;;18.70;93.00;;;;;;5076643;23;20454;-82
2021/11/21 13:41:35;;;;;;;8.80;3.23;;;19.00;91.30;;;;;;5077236;23;20423;-82
2021/11/21 13:43:44;;;;;;;4.80;2.20;;;18.20;91.70;;;;;;5068733;23;20432;-82
2021/11/21 13:45:58;;;;;;;3.47;2.20;;;17.90;92.30;;;;;;5077037;23;20923;-83
2021/11/21 13:48:01;;;;;;;7.03;2.47;;;17.70;92.70;;;;;;5076858;23;20427;-83
2021/11/21 13:50:06;;;;;;;4.90;2.33;;;17.90;93.10;;;;;;5069250;23;20424;-82
2021/11/21 13:52:16;;;;;;;3.60;2.27;;;18.30;92.20;;;;;;5078055;23;20427;-83
2021/11/21 13:54:26;;;;;;;5.20;2.20;;;18.00;91.10;;;;;;5069505;23;20479;-82
2021/11/21 13:56:30;;;;;;;6.70;2.90;;;17.10;92.10;;;;;;5076901;23;20458;-82
2021/11/21 13:58:33;;;;;;;3.60;2.03;;;15.80;95.70;;;;;;5077384;23;20451;-82
2021/11/21 14:00:38;;;;;;;3.27;2.60;;;14.80;98.10;;;;;;5069130;23;20452;-82
2021/11/21 14:02:44;;;;;;;4.63;2.93;;;14.20;98.30;;;;;;5079014;23;20464;-81
2021/11/21 14:04:48;;;;;;;3.70;2.03;;;13.90;98.30;;;;;;5085625;23;20456;-82
2021/11/21 14:06:53;;;;;;;2.93;1.80;;;13.50;98.30;;;;;;5076874;23;20452;-81
2021/11/21 14:08:56;;;;;;;3.07;1.83;;;13.30;98.30;;;;;;5085642;23;20955;-82
2021/11/21 14:11:13;;;;;;;3.40;2.07;;;13.20;98.30;;;;;;5076711;23;20430;-83
2021/11/21 14:13:40;;;;;;;4.50;1.93;;;13.70;98.30;;;;;;5085616;23;20480;-82
2021/11/21 14:15:43;;;;;;;3.90;2.20;;;14.80;98.30;;;;;;5086652;23;20463;-81
2021/11/21 14:17:51;;;;;;;7.07;2.67;;;15.40;98.30;;;;;;5088405;23;20442;-81
2021/11/21 14:19:54;;;;;;;6.23;2.23;;;15.90;98.10;;;;;;5084861;23;20451;-82
2021/11/21 14:22:13;;;;;;;6.00;2.90;;;16.10;96.30;;;;;;5085688;23;20790;-83
2021/11/21 14:24:18;;;;;;;4.77;2.10;;;15.60;96.40;;;;;;5089629;23;20428;-81
2021/11/21 14:26:29;;;;;;;3.97;2.23;;;14.80;98.20;;;;;;5092496;23;20432;-81
2021/11/21 14:28:35;;;;;;;5.60;2.20;;;14.20;98.30;;;;;;5083368;23;20543;-80
2021/11/21 14:30:42;;;;;;;4.83;2.17;;;13.70;98.30;;;;;;5089457;23;20416;-80
2021/11/21 14:32:47;;;;;;;4.93;2.10;;;13.40;98.30;;;;;;5073181;23;20522;-82
2021/11/21 14:34:49;;;;;;;4.33;2.40;;;13.10;98.30;;;;;;5080577;23;20498;-81
2021/11/21 14:36:53;;;;;;;5.63;2.00;;;13.10;98.30;;;;;;5084899;23;20486;-81
2021/11/21 14:39:08;;;;;;;4.57;2.47;;;13.50;98.30;;;;;;5077686;23;20456;-80
2021/11/21 14:41:12;;;;;;;2.90;2.17;;;13.90;98.30;;;;;;5071026;23;20448;-80
2021/11/21 14:43:15;;;;;;;4.10;2.30;;;14.30;98.30;;;;;;5068309;23;20960;-81
2021/11/21 14:45:21;;;;;;;4.73;2.40;;;14.70;98.30;;;;;;5068741;23;20827;-81
2021/11/21 14:47:26;;;;;;;6.27;2.50;;;14.80;98.30;;;;;;5079121;23;20464;-81
2021/11/21 14:49:34;;;;;;;3.20;2.20;;;14.90;98.30;;;;;;5080539;23;20448;-80
2021/11/21 14:51:39;;;;;;;5.53;2.33;;;15.00;98.30;;;;;;5071077;23;20423;-81
2021/11/21 14:53:53;;;;;;;4.87;2.70;;;14.80;98.30;;;;;;5081199;23;20777;-81
2021/11/21 14:55:58;;;;;;;4.10;2.70;;;14.50;98.30;;;;;;5073044;23;20813;-80
2021/11/21 14:58:01;;;;;;;6.00;2.60;;;14.20;98.30;;;;;;5082293;23;20455;-81
2021/11/21 15:00:07;;;;;;;4.50;2.73;;;14.00;98.30;;;;;;5070883;23;20452;-80
2021/11/21 15:02:15;;;;;;;4.33;2.80;;;13.70;98.30;;;;;;5077727;23;20431;-79
2021/11/21 15:04:18;;;;;;;2.70;2.37;;;13.40;98.30;;;;;;5078212;23;20508;-79
2021/11/21 15:06:24;;;;;;;3.60;2.53;;;13.10;98.30;;;;;;5070890;23;20935;-80
2021/11/21 15:08:28;;;;;;;6.60;3.40;;;12.80;98.30;;;;;;5076990;23;21012;-80
2021/11/21 15:10:33;;;;;;;4.77;3.10;;;12.70;98.30;;;;;;5068778;23;20428;-80
2021/11/21 15:12:45;;;;;;;4.67;2.53;;;12.40;98.30;;;;;;5069144;23;21153;-80
2021/11/21 15:14:48;;;;;;;4.13;2.97;;;12.20;98.30;;;;;;5076060;23;20430;-80
2021/11/21 15:16:51;;;;;;;4.90;2.70;;;12.00;98.30;;;;;;5068467;23;20442;-80
2021/11/21 15:18:55;;;;;;;4.20;2.87;;;11.80;98.30;;;;;;5076791;23;20914;-80
2021/11/21 15:21:00;;;;;;;4.97;3.03;;;11.90;98.30;;;;;;5069579;23;20450;-79
2021/11/21 15:23:06;;;;;;;4.33;2.77;;;11.90;98.30;;;;;;5077665;23;20438;-80
2021/11/21 15:25:09;;;;;;;3.53;2.60;;;11.80;98.30;;;;;;5069570;23;20511;-80